createdAt,value
2019-01-28T00:02:11.930Z,1.07
2019-01-28T00:04:40.339Z,1.50
2019-01-28T00:07:08.743Z,1.40
2019-01-28T00:09:37.151Z,1.40
2019-01-28T00:12:05.702Z,1.47
2019-01-28T00:14:34.102Z,1.50
2019-01-28T00:17:02.511Z,1.40
2019-01-28T00:19:30.916Z,1.40
2019-01-28T00:21:59.330Z,1.47
2019-01-28T00:24:27.733Z,1.30
2019-01-28T00:26:56.139Z,1.30
2019-01-28T00:29:24.544Z,1.43
2019-01-28T00:31:52.945Z,1.10
2019-01-28T00:34:21.391Z,1.20
2019-01-28T00:36:49.864Z,1.30
2019-01-28T00:39:18.277Z,1.20
2019-01-28T00:41:46.676Z,1.13
2019-01-28T00:44:15.087Z,1.10
2019-01-28T00:46:43.502Z,1.10
2019-01-28T00:49:11.919Z,1.20
2019-01-28T00:51:40.328Z,1.07
2019-01-28T00:54:08.731Z,0.90
2019-01-28T00:56:37.147Z,1.10
2019-01-28T00:59:05.554Z,0.97
2019-01-28T01:01:34.028Z,1.10
2019-01-28T01:04:02.497Z,1.00
2019-01-28T01:06:30.973Z,1.00
2019-01-28T01:08:59.403Z,0.90
2019-01-28T01:11:27.809Z,0.80
2019-01-28T01:13:56.223Z,1.00
2019-01-28T01:16:24.771Z,1.00
2019-01-28T01:18:53.183Z,1.00
2019-01-28T01:21:21.587Z,1.00
2019-01-28T01:23:49.983Z,0.90
2019-01-28T01:26:18.406Z,0.90
2019-01-28T01:28:46.823Z,1.00
2019-01-28T01:31:15.360Z,1.10
2019-01-28T01:33:43.759Z,0.90
2019-01-28T01:36:12.234Z,0.90
2019-01-28T01:38:40.642Z,1.00
2019-01-28T01:41:09.197Z,1.10
2019-01-28T01:43:37.595Z,1.00
2019-01-28T01:46:06.009Z,1.00
2019-01-28T01:48:34.409Z,1.00
2019-01-28T01:51:02.892Z,0.90
2019-01-28T01:53:31.299Z,1.00
2019-01-28T01:55:59.712Z,1.00
2019-01-28T01:58:28.128Z,0.93
2019-01-28T02:00:56.531Z,1.27
2019-01-28T02:03:24.940Z,1.20
2019-01-28T02:05:53.344Z,1.10
2019-01-28T02:08:21.751Z,1.10
2019-01-28T02:10:50.158Z,1.20
2019-01-28T02:13:18.568Z,1.10
2019-01-28T02:15:46.972Z,1.20
2019-01-28T02:18:15.382Z,1.20
2019-01-28T02:20:43.791Z,1.50
2019-01-28T02:23:12.201Z,1.10
2019-01-28T02:25:40.604Z,1.23
2019-01-28T02:28:09.019Z,1.10
2019-01-28T02:30:37.430Z,1.20
2019-01-28T02:33:05.840Z,1.20
2019-01-28T02:35:34.242Z,1.10
2019-01-28T02:38:02.725Z,1.23
2019-01-28T02:40:31.128Z,1.27
2019-01-28T02:42:59.529Z,1.00
2019-01-28T02:45:27.940Z,1.07
2019-01-28T02:47:56.359Z,1.20
2019-01-28T02:50:24.756Z,1.00
2019-01-28T02:52:53.167Z,1.00
2019-01-28T02:55:21.568Z,1.00
2019-01-28T02:57:49.974Z,0.80
2019-01-28T03:00:20.588Z,1.00
2019-01-28T03:02:49.086Z,0.90
2019-01-28T03:05:18.207Z,0.90
2019-01-28T03:07:46.779Z,0.73
2019-01-28T03:10:17.426Z,0.90
2019-01-28T03:12:45.836Z,0.87
2019-01-28T03:15:15.477Z,0.90
2019-01-28T03:17:43.954Z,1.10
2019-01-28T03:20:14.716Z,0.90
2019-01-28T03:22:43.260Z,1.00
2019-01-28T03:25:14.011Z,1.00
2019-01-28T03:27:42.475Z,1.10
2019-01-28T03:30:13.793Z,0.93
2019-01-28T03:32:42.275Z,1.00
2019-01-28T03:35:10.812Z,0.90
2019-01-28T03:37:39.207Z,1.00
2019-01-28T03:40:13.336Z,1.00
2019-01-28T03:42:42.121Z,0.90
2019-01-28T03:45:15.698Z,1.00
2019-01-28T03:47:44.230Z,1.00
2019-01-28T03:50:14.887Z,1.00
2019-01-28T03:52:43.538Z,1.30
2019-01-28T03:55:12.866Z,1.07
2019-01-28T03:57:41.349Z,0.90
2019-01-28T04:00:18.739Z,0.97
2019-01-28T04:02:47.135Z,0.90
2019-01-28T04:05:15.672Z,1.00
2019-01-28T04:07:44.151Z,1.07
2019-01-28T04:10:15.435Z,1.10
2019-01-28T04:12:43.853Z,0.90
2019-01-28T04:15:15.065Z,1.10
2019-01-28T04:17:43.482Z,1.03
2019-01-28T04:20:14.328Z,0.97
2019-01-28T04:22:42.811Z,0.90
2019-01-28T04:25:12.054Z,1.40
2019-01-28T04:27:40.465Z,1.00
2019-01-28T04:30:14.438Z,1.10
2019-01-28T04:32:42.844Z,1.03
2019-01-28T04:35:11.381Z,1.20
2019-01-28T04:37:39.856Z,1.00
2019-01-28T04:40:13.059Z,1.10
2019-01-28T04:42:41.611Z,1.00
2019-01-28T04:45:13.092Z,1.10
2019-01-28T04:47:41.506Z,1.03
2019-01-28T04:50:12.799Z,1.10
2019-01-28T04:52:41.203Z,0.73
2019-01-28T04:55:11.345Z,0.90
2019-01-28T04:57:39.761Z,1.17
2019-01-28T05:00:11.267Z,1.10
2019-01-28T05:02:39.681Z,0.80
2019-01-28T05:05:08.415Z,1.10
2019-01-28T05:07:36.823Z,1.00
2019-01-28T05:10:13.901Z,1.10
2019-01-28T05:12:42.378Z,1.03
2019-01-28T05:15:13.219Z,1.10
2019-01-28T05:17:41.700Z,1.10
2019-01-28T05:20:12.539Z,0.90
2019-01-28T05:22:40.952Z,1.03
2019-01-28T05:25:11.698Z,1.00
2019-01-28T05:27:40.099Z,0.90
2019-01-28T05:30:11.592Z,1.00
2019-01-28T05:32:39.995Z,1.07
2019-01-28T05:35:11.609Z,1.00
2019-01-28T05:37:40.026Z,0.90
2019-01-28T05:40:11.420Z,0.80
2019-01-28T05:42:39.828Z,1.00
2019-01-28T05:45:11.776Z,1.20
2019-01-28T05:47:40.313Z,1.20
2019-01-28T05:50:10.856Z,1.00
2019-01-28T05:52:39.339Z,1.00
2019-01-28T05:55:10.376Z,1.20
2019-01-28T05:57:38.790Z,1.00
2019-01-28T06:00:10.259Z,0.80
2019-01-28T06:02:38.667Z,0.77
2019-01-28T06:05:08.112Z,0.90
2019-01-28T06:07:36.506Z,0.90
2019-01-28T06:10:10.843Z,0.90
2019-01-28T06:12:39.311Z,0.90
2019-01-28T06:15:13.939Z,0.90
2019-01-28T06:17:42.340Z,1.10
2019-01-28T06:20:14.155Z,0.90
2019-01-28T06:22:42.558Z,1.00
2019-01-28T06:25:11.045Z,0.80
2019-01-28T06:27:39.450Z,1.20
2019-01-28T06:30:10.932Z,1.00
2019-01-28T06:32:39.341Z,1.00
2019-01-28T06:35:08.483Z,1.00
2019-01-28T06:37:36.894Z,0.90
2019-01-28T06:40:08.368Z,0.90
2019-01-28T06:42:36.780Z,1.00
2019-01-28T06:45:08.185Z,1.20
2019-01-28T06:47:36.675Z,0.80
2019-01-28T06:50:08.512Z,1.13
2019-01-28T06:52:36.924Z,1.00
2019-01-28T06:55:08.164Z,1.00
2019-01-28T06:57:36.643Z,1.10
2019-01-28T07:00:13.995Z,1.00
2019-01-28T07:02:42.408Z,1.10
2019-01-28T07:05:10.954Z,1.03
2019-01-28T07:07:39.367Z,0.80
2019-01-28T07:10:09.311Z,1.20
2019-01-28T07:12:37.699Z,1.20
2019-01-28T07:15:08.764Z,0.90
2019-01-28T07:17:37.171Z,0.90
2019-01-28T07:20:08.944Z,0.93
2019-01-28T07:22:37.392Z,1.10
2019-01-28T07:25:06.239Z,0.90
2019-01-28T07:27:34.649Z,1.00
2019-01-28T07:30:04.419Z,1.20
2019-01-28T07:32:32.816Z,1.30
2019-01-28T07:35:01.240Z,1.30
2019-01-28T07:37:29.641Z,1.10
2019-01-28T07:39:58.050Z,1.13
2019-01-28T07:42:26.468Z,1.07
2019-01-28T07:44:54.939Z,1.40
2019-01-28T07:47:23.340Z,1.30
2019-01-28T07:49:51.768Z,1.60
2019-01-28T07:52:20.160Z,1.53
2019-01-28T07:54:48.575Z,1.40
2019-01-28T07:57:16.974Z,1.20
2019-01-28T07:59:45.380Z,1.30
2019-01-28T08:02:13.859Z,1.23
2019-01-28T08:04:42.352Z,1.50
2019-01-28T08:07:10.831Z,1.63
2019-01-28T08:09:39.228Z,1.20
2019-01-28T08:12:07.636Z,1.30
2019-01-28T08:14:36.041Z,1.40
2019-01-28T08:17:04.447Z,1.30
2019-01-28T08:19:32.850Z,1.40
2019-01-28T08:22:01.368Z,1.10
2019-01-28T08:24:29.803Z,1.50
2019-01-28T08:26:58.206Z,1.30
2019-01-28T08:29:26.599Z,1.20
2019-01-28T08:31:55.648Z,1.50
2019-01-28T08:34:24.051Z,1.20
2019-01-28T08:36:52.536Z,1.83
2019-01-28T08:39:20.932Z,1.30
2019-01-28T08:41:49.338Z,1.07
2019-01-28T08:44:17.756Z,1.30
2019-01-28T08:46:46.151Z,1.13
2019-01-28T08:49:14.555Z,1.47
2019-01-28T08:51:43.027Z,1.60
2019-01-28T08:54:11.440Z,1.40
2019-01-28T08:56:39.856Z,1.40
2019-01-28T08:59:08.268Z,1.47
2019-01-28T09:01:36.667Z,1.47
2019-01-28T09:04:05.347Z,1.40
2019-01-28T09:06:33.765Z,1.00
2019-01-28T09:09:02.295Z,1.20
2019-01-28T09:11:30.692Z,1.10
2019-01-28T09:13:59.100Z,1.40
2019-01-28T09:16:27.500Z,1.30
2019-01-28T09:18:55.907Z,1.43
2019-01-28T09:21:24.482Z,1.20
2019-01-28T09:23:53.108Z,1.10
2019-01-28T09:26:25.768Z,1.30
2019-01-28T09:28:57.051Z,1.10
2019-01-28T09:31:25.439Z,1.20
2019-01-28T09:33:53.847Z,1.07
2019-01-28T09:36:22.252Z,1.30
2019-01-28T09:38:50.723Z,1.10
2019-01-28T09:41:19.144Z,1.20
2019-01-28T09:43:47.557Z,1.13
2019-01-28T09:46:15.963Z,1.87
2019-01-28T09:48:44.431Z,1.30
2019-01-28T09:51:12.929Z,1.20
2019-01-28T09:53:41.338Z,1.30
2019-01-28T09:56:09.940Z,1.20
2019-01-28T09:58:38.603Z,1.20
2019-01-28T10:01:07.959Z,1.20
2019-01-28T10:03:36.360Z,1.20
2019-01-28T10:06:05.041Z,1.00
2019-01-28T10:08:33.484Z,1.40
2019-01-28T10:11:01.899Z,1.10
2019-01-28T10:13:30.299Z,1.50
2019-01-28T10:15:58.699Z,1.20
2019-01-28T10:18:27.104Z,1.20
2019-01-28T10:20:55.516Z,1.20
2019-01-28T10:23:23.927Z,1.20
2019-01-28T10:25:57.611Z,1.20
2019-01-28T10:28:22.507Z,1.40
2019-01-28T10:30:51.056Z,1.40
2019-01-28T10:33:19.535Z,1.30
2019-01-28T10:35:48.180Z,1.33
2019-01-28T10:38:16.727Z,1.10
2019-01-28T10:40:45.567Z,1.20
2019-01-28T10:43:14.115Z,1.40
2019-01-28T10:45:42.515Z,1.20
2019-01-28T10:48:11.263Z,1.50
2019-01-28T10:50:40.308Z,1.20
2019-01-28T10:53:08.805Z,1.43
2019-01-28T10:55:37.373Z,1.60
2019-01-28T10:58:06.212Z,1.30
2019-01-28T11:00:46.098Z,1.27
2019-01-28T11:03:15.623Z,1.97
2019-01-28T11:05:44.103Z,1.60
2019-01-28T11:08:12.508Z,1.57
2019-01-28T11:10:41.007Z,1.43
2019-01-28T11:13:09.558Z,1.13
2019-01-28T11:15:38.138Z,1.70
2019-01-28T11:18:09.627Z,1.37
2019-01-28T11:20:38.151Z,1.53
2019-01-28T11:23:06.623Z,1.33
2019-01-28T11:25:35.130Z,1.40
2019-01-28T11:28:03.692Z,1.70
2019-01-28T11:30:41.690Z,1.60
2019-01-28T11:33:10.382Z,2.23
2019-01-28T11:35:39.378Z,1.60
2019-01-28T11:38:07.990Z,1.53
2019-01-28T11:40:36.736Z,1.73
2019-01-28T11:43:05.879Z,2.07
2019-01-28T11:45:43.180Z,2.00
2019-01-28T11:48:11.832Z,2.00
2019-01-28T11:50:40.299Z,1.70
2019-01-28T11:53:08.778Z,1.83
2019-01-28T11:55:37.184Z,1.80
2019-01-28T11:58:06.932Z,1.67
2019-01-28T12:00:48.463Z,1.73
2019-01-28T12:03:16.876Z,1.60
2019-01-28T12:05:45.278Z,1.57
2019-01-28T12:08:13.759Z,1.50
2019-01-28T12:10:42.168Z,1.83
2019-01-28T12:13:10.608Z,2.07
2019-01-28T12:15:39.054Z,1.60
2019-01-28T12:18:07.795Z,2.50
2019-01-28T12:20:36.206Z,1.90
2019-01-28T12:23:04.855Z,1.80
2019-01-28T12:25:33.262Z,2.30
2019-01-28T12:28:01.659Z,2.00
2019-01-28T12:30:31.947Z,1.87
2019-01-28T12:33:00.330Z,1.90
2019-01-28T12:35:28.812Z,2.27
2019-01-28T12:37:57.294Z,1.67
2019-01-28T12:40:25.848Z,1.80
2019-01-28T12:42:54.238Z,1.60
2019-01-28T12:45:26.894Z,1.50
2019-01-28T12:47:55.364Z,1.90
2019-01-28T12:50:24.724Z,1.90
2019-01-28T12:52:53.294Z,1.80
2019-01-28T12:55:23.395Z,1.40
2019-01-28T12:57:51.922Z,1.87
2019-01-28T13:00:44.822Z,1.87
2019-01-28T13:03:13.361Z,1.90
2019-01-28T13:05:42.032Z,1.50
2019-01-28T13:08:10.428Z,1.80
2019-01-28T13:10:40.499Z,2.03
2019-01-28T13:13:08.982Z,2.23
2019-01-28T13:15:37.568Z,1.70
2019-01-28T13:18:06.042Z,1.50
2019-01-28T13:20:34.449Z,2.37
2019-01-28T13:23:02.868Z,1.80
2019-01-28T13:25:38.216Z,1.73
2019-01-28T13:28:08.068Z,1.50
2019-01-28T13:30:37.872Z,1.20
2019-01-28T13:33:09.020Z,1.77
2019-01-28T13:35:37.560Z,1.43
2019-01-28T13:38:06.124Z,1.57
2019-01-28T13:40:34.595Z,1.70
2019-01-28T13:43:03.015Z,1.30
2019-01-28T13:45:31.502Z,1.77
2019-01-28T13:48:00.235Z,1.50
2019-01-28T13:50:28.712Z,1.73
2019-01-28T13:52:57.186Z,1.77
2019-01-28T13:55:25.659Z,1.50
2019-01-28T13:57:54.140Z,1.40
2019-01-28T14:00:24.882Z,1.60
2019-01-28T14:02:53.353Z,1.50
2019-01-28T14:05:21.897Z,1.50
2019-01-28T14:07:50.448Z,1.67
2019-01-28T14:10:20.503Z,1.23
2019-01-28T14:12:49.054Z,1.30
2019-01-28T14:15:25.619Z,1.40
2019-01-28T14:17:54.096Z,1.40
2019-01-28T14:20:27.631Z,1.43
2019-01-28T14:22:56.178Z,1.37
2019-01-28T14:25:24.716Z,2.00
2019-01-28T14:27:53.199Z,1.50
2019-01-28T14:30:24.911Z,1.57
2019-01-28T14:32:53.323Z,1.53
2019-01-28T14:35:21.828Z,1.80
2019-01-28T14:37:50.221Z,1.40
2019-01-28T14:40:21.471Z,1.70
2019-01-28T14:42:49.875Z,1.87
2019-01-28T14:45:18.472Z,1.50
2019-01-28T14:47:46.943Z,1.53
2019-01-28T14:50:24.428Z,1.50
2019-01-28T14:52:52.882Z,1.40
2019-01-28T14:55:21.553Z,1.40
2019-01-28T14:57:50.038Z,1.60
2019-01-28T15:00:21.344Z,1.47
2019-01-28T15:02:49.769Z,1.40
2019-01-28T15:05:18.175Z,1.50
2019-01-28T15:07:46.678Z,1.60
2019-01-28T15:10:17.768Z,1.90
2019-01-28T15:12:47.706Z,1.37
2019-01-28T15:15:18.803Z,1.50
2019-01-28T15:17:47.446Z,1.47
2019-01-28T15:20:16.092Z,1.50
2019-01-28T15:22:44.504Z,1.47
2019-01-28T15:25:16.344Z,1.50
2019-01-28T15:27:44.795Z,1.70
2019-01-28T15:30:19.084Z,1.87
2019-01-28T15:32:47.857Z,1.60
2019-01-28T15:35:16.383Z,1.37
2019-01-28T15:37:44.796Z,1.50
2019-01-28T15:40:16.514Z,1.60
2019-01-28T15:42:44.992Z,1.47
2019-01-28T15:45:22.163Z,1.60
2019-01-28T15:47:50.640Z,1.93
2019-01-28T15:50:19.496Z,1.43
2019-01-28T15:52:48.284Z,1.40
2019-01-28T15:55:31.435Z,1.80
2019-01-28T15:58:00.617Z,1.80
2019-01-28T16:00:31.463Z,1.60
2019-01-28T16:03:00.208Z,1.40
2019-01-28T16:05:28.624Z,1.53
2019-01-28T16:07:57.024Z,1.70
2019-01-28T16:10:25.468Z,1.60
2019-01-28T16:12:53.863Z,1.50
2019-01-28T16:15:39.880Z,2.03
2019-01-28T16:18:09.038Z,1.47
2019-01-28T16:20:38.285Z,1.70
2019-01-28T16:23:07.348Z,1.60
2019-01-28T16:25:35.752Z,2.53
2019-01-28T16:28:04.795Z,2.07
2019-01-28T16:30:34.223Z,1.77
2019-01-28T16:33:02.641Z,1.77
2019-01-28T16:35:31.049Z,1.70
2019-01-28T16:37:59.528Z,2.07
2019-01-28T16:40:30.040Z,2.33
2019-01-28T16:42:59.285Z,3.13
2019-01-28T16:45:27.832Z,1.70
2019-01-28T16:47:56.243Z,1.90
2019-01-28T16:50:30.587Z,2.13
2019-01-28T16:52:59.075Z,1.83
2019-01-28T16:55:27.472Z,1.50
2019-01-28T16:57:56.519Z,1.70
2019-01-28T17:00:32.913Z,2.00
2019-01-28T17:03:01.398Z,2.30
2019-01-28T17:05:30.236Z,1.90
2019-01-28T17:07:58.648Z,2.23
2019-01-28T17:10:27.058Z,1.83
2019-01-28T17:12:55.471Z,1.73
2019-01-28T17:15:24.215Z,1.80
2019-01-28T17:17:52.684Z,2.07
2019-01-28T17:20:35.490Z,2.00
2019-01-28T17:23:01.691Z,2.20
2019-01-28T17:25:35.691Z,2.00
2019-01-28T17:28:04.335Z,1.70
2019-01-28T17:30:35.815Z,2.53
2019-01-28T17:33:04.668Z,1.70
2019-01-28T17:35:33.136Z,2.40
2019-01-28T17:38:01.555Z,1.83
2019-01-28T17:40:31.598Z,2.30
2019-01-28T17:42:59.998Z,2.20
2019-01-28T17:45:28.856Z,2.43
2019-01-28T17:47:57.587Z,2.13
2019-01-28T17:50:26.981Z,1.60
2019-01-28T17:52:55.440Z,1.73
2019-01-28T17:55:23.979Z,1.73
2019-01-28T17:57:52.573Z,3.97
2019-01-28T18:00:44.332Z,6.23
2019-01-28T18:03:12.749Z,3.33
2019-01-28T18:05:41.152Z,2.13
2019-01-28T18:08:09.631Z,2.90
2019-01-28T18:10:38.113Z,2.50
2019-01-28T18:13:06.520Z,2.97
2019-01-28T18:15:34.986Z,2.40
2019-01-28T18:18:03.559Z,2.00
2019-01-28T18:20:31.955Z,1.83
2019-01-28T18:23:00.458Z,1.97
2019-01-28T18:25:34.369Z,2.20
2019-01-28T18:28:02.917Z,2.60
2019-01-28T18:30:37.317Z,1.70
2019-01-28T18:33:06.056Z,1.90
2019-01-28T18:35:34.453Z,1.83
2019-01-28T18:38:03.028Z,2.27
2019-01-28T18:40:31.431Z,1.70
2019-01-28T18:42:59.847Z,1.90
2019-01-28T18:45:28.252Z,1.80
2019-01-28T18:47:56.671Z,1.73
2019-01-28T18:50:25.717Z,2.27
2019-01-28T18:52:54.269Z,2.10
2019-01-28T18:55:23.215Z,2.00
2019-01-28T18:57:51.703Z,2.00
2019-01-28T19:00:29.655Z,1.63
2019-01-28T19:02:58.361Z,2.00
2019-01-28T19:05:34.279Z,1.77
2019-01-28T19:08:04.328Z,1.97
2019-01-28T19:10:37.106Z,2.23
2019-01-28T19:13:10.188Z,1.90
2019-01-28T19:15:42.985Z,1.57
2019-01-28T19:18:22.088Z,1.87
2019-01-28T19:20:52.133Z,2.10
2019-01-28T19:23:20.555Z,1.90
2019-01-28T19:25:48.958Z,2.00
2019-01-28T19:28:17.368Z,1.80
2019-01-28T19:30:45.780Z,1.70
2019-01-28T19:33:14.192Z,1.73
2019-01-28T19:35:42.598Z,2.00
2019-01-28T19:38:11.175Z,1.90
2019-01-28T19:40:39.579Z,1.70
2019-01-28T19:43:07.994Z,2.17
2019-01-28T19:45:36.455Z,2.10
2019-01-28T19:48:05.602Z,1.80
2019-01-28T19:50:34.004Z,2.00
2019-01-28T19:53:02.409Z,2.07
2019-01-28T19:55:30.824Z,2.07
2019-01-28T19:57:59.227Z,2.00
2019-01-28T20:00:27.790Z,1.83
2019-01-28T20:02:58.152Z,1.90
2019-01-28T20:05:26.460Z,1.93
2019-01-28T20:07:54.928Z,1.80
2019-01-28T20:10:23.336Z,2.23
2019-01-28T20:12:51.813Z,1.90
2019-01-28T20:15:22.065Z,1.80
2019-01-28T20:17:50.604Z,2.00
2019-01-28T20:20:19.869Z,2.00
2019-01-28T20:22:48.519Z,1.93
2019-01-28T20:25:18.263Z,1.90
2019-01-28T20:27:46.693Z,2.10
2019-01-28T20:30:18.076Z,2.30
2019-01-28T20:32:46.504Z,2.23
2019-01-28T20:35:15.341Z,1.90
2019-01-28T20:37:43.753Z,2.23
2019-01-28T20:40:16.370Z,2.00
2019-01-28T20:42:44.839Z,2.20
2019-01-28T20:45:16.320Z,2.10
2019-01-28T20:47:44.815Z,2.40
2019-01-28T20:50:21.568Z,2.23
2019-01-28T20:52:50.173Z,1.93
2019-01-28T20:55:18.673Z,2.10
2019-01-28T20:57:47.106Z,2.07
2019-01-28T21:00:20.499Z,2.30
2019-01-28T21:02:49.125Z,2.20
2019-01-28T21:05:19.559Z,2.40
2019-01-28T21:07:48.003Z,2.33
2019-01-28T21:10:21.132Z,2.30
2019-01-28T21:12:50.595Z,2.20
2019-01-28T21:15:19.252Z,2.87
2019-01-28T21:17:48.363Z,2.60
2019-01-28T21:20:36.160Z,2.37
2019-01-28T21:23:04.552Z,2.27
2019-01-28T21:25:32.972Z,2.40
2019-01-28T21:28:01.372Z,2.33
2019-01-28T21:30:32.122Z,2.20
2019-01-28T21:33:00.672Z,2.40
2019-01-28T21:35:31.156Z,2.60
2019-01-28T21:38:01.240Z,2.43
2019-01-28T21:40:29.691Z,2.17
2019-01-28T21:42:58.092Z,2.50
2019-01-28T21:45:26.575Z,2.30
2019-01-28T21:47:54.978Z,2.47
2019-01-28T21:50:25.025Z,2.50
2019-01-28T21:52:53.601Z,2.53
2019-01-28T21:55:22.204Z,2.60
2019-01-28T21:57:50.670Z,2.40
2019-01-28T22:00:19.336Z,2.57
2019-01-28T22:02:47.796Z,2.80
2019-01-28T22:05:16.347Z,2.50
2019-01-28T22:07:44.811Z,2.53
2019-01-28T22:10:14.863Z,2.80
2019-01-28T22:12:43.267Z,2.80
2019-01-28T22:15:14.698Z,3.23
2019-01-28T22:17:43.096Z,3.30
2019-01-28T22:20:15.272Z,3.97
2019-01-28T22:22:43.688Z,3.93
2019-01-28T22:25:14.027Z,3.67
2019-01-28T22:27:42.435Z,3.67
2019-01-28T22:30:26.260Z,4.33
2019-01-28T22:32:54.668Z,4.37
2019-01-28T22:35:23.076Z,4.77
2019-01-28T22:37:51.487Z,4.63
2019-01-28T22:40:20.297Z,5.13
2019-01-28T22:42:48.782Z,5.73
2019-01-28T22:45:18.523Z,4.53
2019-01-28T22:47:46.937Z,5.53
2019-01-28T22:50:17.453Z,6.07
2019-01-28T22:52:45.853Z,5.97
2019-01-28T22:55:16.874Z,5.97
2019-01-28T22:57:45.275Z,6.00
2019-01-28T23:00:24.203Z,5.00
2019-01-28T23:02:52.616Z,5.33
2019-01-28T23:05:21.025Z,6.10
2019-01-28T23:07:49.436Z,5.53
2019-01-28T23:10:17.856Z,6.07
2019-01-28T23:12:46.261Z,6.03
2019-01-28T23:15:14.676Z,6.10
2019-01-28T23:17:43.148Z,6.33
2019-01-28T23:20:11.627Z,6.63
2019-01-28T23:22:40.027Z,6.37
2019-01-28T23:25:08.581Z,6.07
2019-01-28T23:27:37.029Z,7.00
2019-01-28T23:30:08.544Z,6.47
2019-01-28T23:32:36.952Z,7.40
2019-01-28T23:35:08.309Z,6.83
2019-01-28T23:37:36.708Z,6.93
2019-01-28T23:40:09.454Z,6.30
2019-01-28T23:42:37.859Z,6.20
2019-01-28T23:45:14.366Z,6.60
2019-01-28T23:47:42.772Z,5.97
2019-01-28T23:50:12.624Z,6.37
2019-01-28T23:52:41.098Z,6.60
2019-01-28T23:55:10.261Z,6.33
2019-01-28T23:57:38.655Z,5.80
